createdAt,value
2017-10-07T00:00:19.381Z,22.30
2017-10-07T00:02:49.142Z,22.30
2017-10-07T00:05:17.721Z,22.30
2017-10-07T00:07:46.368Z,22.30
2017-10-07T00:10:15.096Z,22.30
2017-10-07T00:12:44.098Z,22.40
2017-10-07T00:15:12.750Z,22.50
2017-10-07T00:17:41.482Z,22.40
2017-10-07T00:20:10.049Z,22.30
2017-10-07T00:22:38.656Z,22.30
2017-10-07T00:25:07.285Z,22.20
2017-10-07T00:27:35.872Z,22.20
2017-10-07T00:30:05.323Z,22.20
2017-10-07T00:32:34.842Z,22.00
2017-10-07T00:35:03.542Z,22.00
2017-10-07T00:37:32.197Z,22.00
2017-10-07T00:40:01.087Z,21.90
2017-10-07T00:42:30.064Z,21.80
2017-10-07T00:44:58.709Z,21.70
2017-10-07T00:47:27.543Z,21.70
2017-10-07T00:49:56.864Z,21.70
2017-10-07T00:52:25.559Z,21.70
2017-10-07T00:54:54.462Z,21.70
2017-10-07T00:57:23.710Z,21.70
2017-10-07T00:59:52.504Z,21.70
2017-10-07T01:02:21.283Z,21.80
2017-10-07T01:04:50.038Z,21.90
2017-10-07T01:07:18.857Z,21.90
2017-10-07T01:09:48.493Z,21.80
2017-10-07T01:12:17.464Z,21.80
2017-10-07T01:14:46.056Z,21.80
2017-10-07T01:17:14.807Z,21.70
2017-10-07T01:19:44.292Z,21.70
2017-10-07T01:22:13.083Z,21.70
2017-10-07T01:24:41.886Z,21.50
2017-10-07T01:27:11.536Z,21.40
2017-10-07T01:29:40.289Z,21.50
2017-10-07T01:32:09.052Z,21.50
2017-10-07T01:34:37.830Z,21.40
2017-10-07T01:37:06.584Z,21.40
2017-10-07T01:39:35.316Z,21.40
2017-10-07T01:42:05.013Z,21.40
2017-10-07T01:44:33.772Z,21.40
2017-10-07T01:47:02.753Z,21.30
2017-10-07T01:49:31.501Z,21.30
2017-10-07T01:52:01.582Z,21.30
2017-10-07T01:54:30.280Z,21.30
2017-10-07T01:56:59.088Z,21.20
2017-10-07T01:59:27.847Z,21.20
2017-10-07T02:01:56.548Z,21.20
2017-10-07T02:04:26.210Z,21.40
2017-10-07T02:06:54.845Z,21.40
2017-10-07T02:09:23.557Z,21.50
2017-10-07T02:11:52.211Z,21.40
2017-10-07T02:14:20.791Z,21.20
2017-10-07T02:16:49.561Z,21.20
2017-10-07T02:19:18.168Z,21.20
2017-10-07T02:21:46.740Z,21.20
2017-10-07T02:24:15.369Z,21.20
2017-10-07T02:26:44.842Z,21.20
2017-10-07T02:29:13.521Z,21.10
2017-10-07T02:31:42.282Z,21.10
2017-10-07T02:34:10.944Z,21.10
2017-10-07T02:36:39.534Z,21.10
2017-10-07T02:39:08.260Z,21.10
2017-10-07T02:41:37.055Z,21.10
2017-10-07T02:44:05.753Z,21.10
2017-10-07T02:46:34.362Z,21.10
2017-10-07T02:49:03.829Z,21.10
2017-10-07T02:51:32.530Z,21.10
2017-10-07T02:54:01.916Z,21.10
2017-10-07T02:56:30.532Z,21.10
2017-10-07T02:58:59.140Z,21.10
2017-10-07T03:01:28.526Z,21.00
2017-10-07T03:03:57.142Z,21.00
2017-10-07T03:06:26.504Z,21.00
2017-10-07T03:08:55.122Z,21.00
2017-10-07T03:11:23.775Z,21.10
2017-10-07T03:13:52.460Z,21.10
2017-10-07T03:16:21.147Z,20.90
2017-10-07T03:18:49.871Z,20.80
2017-10-07T03:21:18.445Z,20.70
2017-10-07T03:23:47.087Z,20.80
2017-10-07T03:26:15.651Z,20.80
2017-10-07T03:28:44.467Z,20.90
2017-10-07T03:31:13.112Z,21.00
2017-10-07T03:33:42.021Z,21.10
2017-10-07T03:36:10.647Z,21.10
2017-10-07T03:38:39.374Z,21.10
2017-10-07T03:41:08.994Z,21.10
2017-10-07T03:43:37.847Z,21.10
2017-10-07T03:46:06.862Z,21.10
2017-10-07T03:48:35.779Z,21.10
2017-10-07T03:51:04.364Z,20.90
2017-10-07T03:53:33.159Z,20.90
2017-10-07T03:56:01.770Z,20.80
2017-10-07T03:58:30.366Z,20.80
2017-10-07T04:00:59.862Z,20.60
2017-10-07T04:03:29.306Z,20.60
2017-10-07T04:05:58.749Z,20.60
2017-10-07T04:08:28.271Z,20.60
2017-10-07T04:10:58.367Z,20.40
2017-10-07T04:13:26.988Z,20.40
2017-10-07T04:15:55.768Z,20.30
2017-10-07T04:18:24.537Z,20.30
2017-10-07T04:20:53.162Z,20.10
2017-10-07T04:23:22.721Z,19.80
2017-10-07T04:25:51.447Z,19.80
2017-10-07T04:28:20.288Z,19.80
2017-10-07T04:30:49.007Z,19.80
2017-10-07T04:33:17.875Z,19.70
2017-10-07T04:35:46.535Z,19.90
2017-10-07T04:38:15.273Z,19.90
2017-10-07T04:40:43.884Z,19.90
2017-10-07T04:43:12.586Z,19.80
2017-10-07T04:45:41.347Z,19.90
2017-10-07T04:48:10.123Z,19.80
2017-10-07T04:50:38.962Z,19.70
2017-10-07T04:53:07.887Z,19.70
2017-10-07T04:55:36.535Z,19.80
2017-10-07T04:58:05.222Z,19.80
2017-10-07T05:00:34.990Z,19.60
2017-10-07T05:03:05.480Z,19.50
2017-10-07T05:05:34.891Z,19.50
2017-10-07T05:08:03.691Z,19.40
2017-10-07T05:10:32.379Z,19.40
2017-10-07T05:13:01.104Z,19.50
2017-10-07T05:15:29.853Z,19.60
2017-10-07T05:17:59.326Z,19.60
2017-10-07T05:20:28.000Z,19.60
2017-10-07T05:22:56.949Z,19.50
2017-10-07T05:25:25.625Z,19.60
2017-10-07T05:27:54.403Z,19.60
2017-10-07T05:30:23.056Z,19.50
2017-10-07T05:32:51.677Z,19.50
2017-10-07T05:35:21.077Z,19.40
2017-10-07T05:37:49.654Z,19.40
2017-10-07T05:40:18.278Z,19.50
2017-10-07T05:42:46.965Z,19.40
2017-10-07T05:45:15.626Z,19.40
2017-10-07T05:47:44.180Z,19.30
2017-10-07T05:50:12.894Z,19.30
2017-10-07T05:52:41.691Z,19.30
2017-10-07T05:55:10.648Z,19.30
2017-10-07T05:57:39.354Z,19.30
2017-10-07T06:00:08.971Z,19.20
2017-10-07T06:02:37.625Z,19.20
2017-10-07T06:05:06.245Z,19.30
2017-10-07T06:07:34.881Z,19.30
2017-10-07T06:10:03.622Z,19.30
2017-10-07T06:12:32.392Z,19.40
2017-10-07T06:15:01.027Z,19.30
2017-10-07T06:17:29.806Z,19.20
2017-10-07T06:19:58.635Z,19.10
2017-10-07T06:22:27.232Z,19.10
2017-10-07T06:24:58.690Z,19.00
2017-10-07T06:27:29.250Z,18.90
2017-10-07T06:29:58.431Z,18.80
2017-10-07T06:32:27.357Z,18.80
2017-10-07T06:34:56.406Z,18.70
2017-10-07T06:37:25.087Z,18.70
2017-10-07T06:39:53.685Z,18.80
2017-10-07T06:42:22.399Z,18.90
2017-10-07T06:44:52.283Z,18.90
2017-10-07T06:47:21.843Z,18.90
2017-10-07T06:49:50.489Z,19.00
2017-10-07T06:52:20.177Z,19.00
2017-10-07T06:54:48.796Z,19.10
2017-10-07T06:57:17.399Z,19.10
2017-10-07T06:59:46.474Z,19.00
2017-10-07T07:02:16.414Z,18.90
2017-10-07T07:04:45.324Z,18.90
2017-10-07T07:07:14.371Z,18.90
2017-10-07T07:09:43.232Z,19.10
2017-10-07T07:12:13.097Z,19.50
2017-10-07T07:14:42.221Z,19.40
2017-10-07T07:17:10.886Z,20.10
2017-10-07T07:19:39.712Z,21.20
2017-10-07T07:22:08.360Z,21.80
2017-10-07T07:24:38.014Z,22.90
2017-10-07T07:27:07.602Z,22.20
2017-10-07T07:29:36.290Z,21.80
2017-10-07T07:32:05.044Z,21.60
2017-10-07T07:34:33.855Z,21.20
2017-10-07T07:37:03.545Z,21.20
2017-10-07T07:39:32.239Z,21.10
2017-10-07T07:42:01.064Z,21.00
2017-10-07T07:44:29.818Z,20.70
2017-10-07T07:46:59.145Z,20.60
2017-10-07T07:49:27.866Z,20.60
2017-10-07T07:51:57.555Z,20.70
2017-10-07T07:54:28.876Z,21.00
2017-10-07T07:56:57.696Z,21.00
2017-10-07T07:59:27.611Z,20.70
2017-10-07T08:01:56.303Z,20.60
2017-10-07T08:04:26.849Z,20.60
2017-10-07T08:06:58.885Z,20.70
2017-10-07T08:09:30.693Z,20.70
2017-10-07T08:11:59.513Z,20.90
2017-10-07T08:14:28.266Z,21.00
2017-10-07T08:16:57.057Z,21.20
2017-10-07T08:19:27.761Z,21.40
2017-10-07T08:22:02.636Z,21.50
2017-10-07T08:24:32.926Z,21.50
2017-10-07T08:27:01.642Z,21.50
2017-10-07T08:29:32.163Z,21.70
2017-10-07T08:32:00.954Z,21.50
2017-10-07T08:34:30.581Z,21.60
2017-10-07T08:36:59.400Z,21.60
2017-10-07T08:39:28.094Z,21.80
2017-10-07T08:41:56.766Z,21.80
2017-10-07T08:44:25.990Z,21.50
2017-10-07T08:46:55.454Z,21.90
2017-10-07T08:49:25.175Z,21.90
2017-10-07T08:51:54.686Z,22.00
2017-10-07T08:54:24.222Z,21.70
2017-10-07T08:56:53.887Z,21.50
2017-10-07T08:59:22.900Z,21.70
2017-10-07T09:01:52.721Z,21.90
2017-10-07T09:04:21.915Z,21.90
2017-10-07T09:06:52.631Z,21.90
2017-10-07T09:09:21.325Z,21.90
2017-10-07T09:11:50.091Z,21.70
2017-10-07T09:14:19.524Z,21.50
2017-10-07T09:16:48.621Z,21.40
2017-10-07T09:19:18.556Z,21.40
2017-10-07T09:21:47.746Z,21.40
2017-10-07T09:24:16.773Z,21.80
2017-10-07T09:26:45.701Z,22.00
2017-10-07T09:29:14.542Z,21.70
2017-10-07T09:31:43.477Z,21.70
2017-10-07T09:34:13.024Z,21.60
2017-10-07T09:36:44.569Z,21.70
2017-10-07T09:39:13.354Z,22.10
2017-10-07T09:41:42.018Z,22.40
2017-10-07T09:44:11.086Z,22.30
2017-10-07T09:46:44.274Z,22.20
2017-10-07T09:49:13.941Z,22.60
2017-10-07T09:51:42.840Z,22.60
2017-10-07T09:54:12.931Z,22.60
2017-10-07T09:56:41.631Z,22.50
2017-10-07T09:59:10.561Z,22.60
2017-10-07T10:01:40.352Z,22.70
2017-10-07T10:04:14.785Z,22.70
2017-10-07T10:06:44.148Z,22.70
2017-10-07T10:09:12.938Z,22.90
2017-10-07T10:11:41.867Z,22.90
2017-10-07T10:14:10.791Z,22.70
2017-10-07T10:16:39.629Z,22.90
2017-10-07T10:19:08.476Z,23.20
2017-10-07T10:21:37.508Z,23.20
2017-10-07T10:24:07.628Z,23.20
2017-10-07T10:26:37.522Z,23.20
2017-10-07T10:29:06.563Z,23.30
2017-10-07T10:31:36.724Z,23.40
2017-10-07T10:34:05.646Z,23.50
2017-10-07T10:36:34.856Z,23.60
2017-10-07T10:39:04.834Z,23.70
2017-10-07T10:41:33.725Z,23.60
2017-10-07T10:44:03.339Z,23.70
2017-10-07T10:46:32.425Z,23.70
2017-10-07T10:49:01.430Z,23.60
2017-10-07T10:51:30.470Z,23.50
2017-10-07T10:53:59.513Z,23.70
2017-10-07T10:56:28.479Z,23.70
2017-10-07T10:58:57.494Z,23.50
2017-10-07T11:01:26.489Z,23.40
2017-10-07T11:03:55.459Z,23.30
2017-10-07T11:06:24.261Z,23.00
2017-10-07T11:08:53.726Z,22.70
2017-10-07T11:11:23.217Z,22.70
2017-10-07T11:13:51.991Z,22.70
2017-10-07T11:16:20.765Z,22.60
2017-10-07T11:18:50.544Z,22.70
2017-10-07T11:21:20.857Z,22.60
2017-10-07T11:23:50.753Z,22.60
2017-10-07T11:26:19.608Z,22.60
2017-10-07T11:28:48.379Z,22.50
2017-10-07T11:31:17.310Z,22.40
2017-10-07T11:33:46.744Z,22.50
2017-10-07T11:36:15.476Z,22.60
2017-10-07T11:38:45.387Z,22.60
2017-10-07T11:41:14.598Z,22.50
2017-10-07T11:43:43.490Z,22.20
2017-10-07T11:46:12.820Z,22.20
2017-10-07T11:48:41.563Z,22.10
2017-10-07T11:51:10.455Z,22.20
2017-10-07T11:53:39.899Z,21.90
2017-10-07T11:56:08.649Z,21.90
2017-10-07T11:58:37.371Z,22.10
2017-10-07T12:01:08.790Z,22.30
2017-10-07T12:03:38.063Z,22.20
2017-10-07T12:06:07.650Z,22.30
2017-10-07T12:08:36.557Z,22.30
2017-10-07T12:11:06.278Z,22.30
2017-10-07T12:13:35.440Z,22.30
2017-10-07T12:16:04.239Z,22.20
2017-10-07T12:18:33.076Z,22.30
2017-10-07T12:21:02.097Z,22.30
2017-10-07T12:23:31.038Z,22.30
2017-10-07T12:26:00.002Z,22.40
2017-10-07T12:28:30.144Z,22.70
2017-10-07T12:30:59.814Z,22.80
2017-10-07T12:33:28.821Z,22.80
2017-10-07T12:35:57.776Z,22.80
2017-10-07T12:38:26.588Z,22.90
2017-10-07T12:40:55.363Z,23.20
2017-10-07T12:43:25.068Z,26.20
2017-10-07T12:45:53.956Z,26.10
2017-10-07T12:48:23.099Z,27.30
2017-10-07T12:50:52.752Z,27.90
2017-10-07T12:53:21.980Z,27.60
2017-10-07T12:55:50.610Z,28.10
2017-10-07T12:58:19.995Z,28.80
2017-10-07T13:00:49.272Z,28.80
2017-10-07T13:03:18.485Z,28.60
2017-10-07T13:05:47.262Z,28.80
2017-10-07T13:08:16.203Z,29.50
2017-10-07T13:10:45.778Z,29.80
2017-10-07T13:13:14.515Z,29.80
2017-10-07T13:15:43.387Z,30.10
2017-10-07T13:18:12.067Z,29.90
2017-10-07T13:20:40.889Z,28.20
2017-10-07T13:23:11.082Z,27.90
2017-10-07T13:25:40.421Z,29.00
2017-10-07T13:28:09.153Z,28.70
2017-10-07T13:30:39.034Z,28.50
2017-10-07T13:33:07.753Z,28.90
2017-10-07T13:35:36.603Z,29.00
2017-10-07T13:38:05.804Z,28.00
2017-10-07T13:40:36.561Z,28.20
2017-10-07T13:43:06.194Z,27.90
2017-10-07T13:45:35.258Z,27.30
2017-10-07T13:48:05.297Z,26.20
2017-10-07T13:50:34.270Z,26.10
2017-10-07T13:53:03.685Z,25.50
2017-10-07T13:55:36.854Z,25.20
2017-10-07T13:58:07.230Z,24.40
2017-10-07T14:00:39.764Z,24.40
2017-10-07T14:03:09.214Z,24.10
2017-10-07T14:05:37.973Z,23.80
2017-10-07T14:08:07.739Z,23.50
2017-10-07T14:10:37.176Z,23.50
2017-10-07T14:13:06.090Z,23.90
2017-10-07T14:15:34.805Z,24.30
2017-10-07T14:18:03.778Z,24.90
2017-10-07T14:20:32.788Z,24.60
2017-10-07T14:23:05.053Z,24.20
2017-10-07T14:25:34.190Z,23.70
2017-10-07T14:28:04.060Z,23.40
2017-10-07T14:30:33.605Z,23.20
2017-10-07T14:33:03.907Z,22.80
2017-10-07T14:35:34.938Z,22.70
2017-10-07T14:40:42.672Z,22.20
2017-10-07T14:43:11.947Z,22.20
2017-10-07T14:45:42.239Z,22.20
2017-10-07T14:48:11.744Z,22.20
2017-10-07T14:50:48.469Z,22.20
2017-10-07T14:53:17.298Z,22.20
2017-10-07T14:55:47.005Z,22.10
2017-10-07T14:58:19.716Z,22.10
2017-10-07T15:00:50.810Z,22.10
2017-10-07T15:03:22.660Z,21.90
2017-10-07T15:05:57.985Z,21.90
2017-10-07T15:08:27.014Z,21.70
2017-10-07T15:10:55.969Z,22.00
2017-10-07T15:13:24.955Z,21.90
2017-10-07T15:15:53.927Z,21.80
2017-10-07T15:18:24.317Z,21.60
2017-10-07T15:20:54.133Z,21.50
2017-10-07T15:23:23.985Z,21.60
2017-10-07T15:25:53.285Z,21.40
2017-10-07T15:28:24.634Z,21.40
2017-10-07T15:30:57.013Z,21.40
2017-10-07T15:33:35.501Z,21.40
2017-10-07T15:36:08.475Z,21.40
2017-10-07T15:38:38.618Z,21.10
2017-10-07T15:41:08.440Z,21.10
2017-10-07T15:43:41.408Z,21.10
2017-10-07T15:46:12.756Z,21.20
2017-10-07T15:48:43.516Z,21.20
2017-10-07T15:51:13.038Z,21.10
2017-10-07T15:53:42.073Z,21.00
2017-10-07T15:56:11.286Z,21.00
2017-10-07T15:58:40.792Z,21.00
2017-10-07T16:01:10.288Z,21.10
2017-10-07T16:03:39.760Z,20.80
2017-10-07T16:06:12.743Z,20.80
2017-10-07T16:08:48.412Z,20.90
2017-10-07T16:11:17.800Z,20.90
2017-10-07T16:13:46.671Z,21.00
2017-10-07T16:16:17.076Z,21.00
2017-10-07T16:18:46.585Z,21.00
2017-10-07T16:21:16.388Z,21.10
2017-10-07T16:23:47.317Z,21.10
2017-10-07T16:26:18.869Z,21.00
2017-10-07T16:28:48.035Z,20.80
2017-10-07T16:31:18.389Z,20.80
2017-10-07T16:33:48.515Z,21.00
2017-10-07T16:36:17.669Z,21.00
2017-10-07T16:38:46.539Z,20.90
2017-10-07T16:41:16.754Z,21.00
2017-10-07T16:43:46.427Z,20.90
2017-10-07T16:46:15.605Z,20.90
2017-10-07T16:48:44.859Z,20.90
2017-10-07T16:51:14.448Z,20.90
2017-10-07T16:53:45.764Z,20.70
2017-10-07T16:56:16.622Z,20.60
2017-10-07T16:58:46.258Z,20.70
2017-10-07T17:01:15.809Z,20.80
2017-10-07T17:03:45.148Z,20.80
2017-10-07T17:06:14.321Z,20.70
2017-10-07T17:08:43.157Z,20.70
2017-10-07T17:11:11.962Z,20.70
2017-10-07T17:13:40.981Z,20.70
2017-10-07T17:16:09.893Z,20.70
2017-10-07T17:18:38.811Z,20.70
2017-10-07T17:21:08.281Z,20.60
2017-10-07T17:23:37.303Z,20.60
2017-10-07T17:26:06.807Z,20.60
2017-10-07T17:28:36.174Z,20.50
2017-10-07T17:31:05.407Z,20.60
2017-10-07T17:33:34.986Z,20.60
2017-10-07T17:36:04.697Z,20.60
2017-10-07T17:38:35.231Z,20.50
2017-10-07T17:41:04.128Z,20.50
2017-10-07T17:43:33.100Z,20.40
2017-10-07T17:46:04.221Z,20.50
2017-10-07T17:48:35.921Z,20.40
2017-10-07T17:51:04.890Z,20.40
2017-10-07T17:53:34.449Z,20.40
2017-10-07T17:56:04.275Z,20.40
2017-10-07T17:58:32.978Z,20.40
2017-10-07T18:01:02.110Z,20.40
2017-10-07T18:03:31.438Z,20.40
2017-10-07T18:06:02.028Z,20.40
2017-10-07T18:08:32.230Z,20.50
2017-10-07T18:11:01.839Z,20.40
2017-10-07T18:13:31.530Z,20.50
2017-10-07T18:16:01.151Z,20.40
2017-10-07T18:18:30.254Z,20.40
2017-10-07T18:21:00.051Z,20.40
2017-10-07T18:23:30.776Z,20.40
2017-10-07T18:26:01.007Z,20.50
2017-10-07T18:28:29.853Z,20.40
2017-10-07T18:30:58.772Z,20.40
2017-10-07T18:33:27.560Z,20.40
2017-10-07T18:35:56.502Z,20.40
2017-10-07T18:38:25.598Z,20.40
2017-10-07T18:40:55.311Z,20.50
2017-10-07T18:43:25.051Z,20.60
2017-10-07T18:45:53.853Z,20.50
2017-10-07T18:48:23.504Z,20.40
2017-10-07T18:50:52.471Z,20.30
2017-10-07T18:53:21.446Z,20.20
2017-10-07T18:55:51.144Z,20.20
2017-10-07T18:58:20.002Z,20.20
2017-10-07T19:00:49.002Z,20.20
2017-10-07T19:03:19.410Z,20.20
2017-10-07T19:05:48.148Z,20.20
2017-10-07T19:08:17.157Z,20.20
2017-10-07T19:10:46.973Z,20.20
2017-10-07T19:13:16.798Z,20.20
2017-10-07T19:15:46.557Z,20.30
2017-10-07T19:18:15.600Z,20.30
2017-10-07T19:20:44.657Z,20.20
2017-10-07T19:23:13.662Z,20.20
2017-10-07T19:25:42.421Z,20.10
2017-10-07T19:28:11.230Z,20.10
2017-10-07T19:30:39.876Z,20.10
2017-10-07T19:33:09.592Z,20.10
2017-10-07T19:35:39.333Z,20.10
2017-10-07T19:38:09.790Z,20.10
2017-10-07T19:40:38.496Z,20.10
2017-10-07T19:43:07.170Z,20.20
2017-10-07T19:45:36.638Z,20.30
2017-10-07T19:48:05.826Z,20.20
2017-10-07T21:12:33.699Z,20.30
2017-10-07T21:15:03.353Z,19.90
2017-10-07T21:17:32.032Z,19.80
2017-10-07T21:20:00.674Z,19.80
2017-10-07T21:22:29.404Z,19.80
2017-10-07T21:24:58.151Z,19.80
2017-10-07T21:27:27.602Z,19.80
2017-10-07T21:29:56.237Z,19.80
2017-10-07T21:32:25.668Z,19.80
2017-10-07T21:34:54.344Z,19.80
2017-10-07T21:37:23.056Z,19.80
2017-10-07T21:39:51.827Z,19.80
2017-10-07T21:42:21.451Z,19.80
2017-10-07T21:44:50.460Z,19.80
2017-10-07T21:47:19.284Z,19.80
2017-10-07T21:49:48.920Z,19.80
2017-10-07T21:52:18.522Z,19.80
2017-10-07T21:54:47.984Z,19.80
2017-10-07T21:57:17.534Z,19.80
2017-10-07T21:59:46.155Z,19.80
2017-10-07T22:02:14.800Z,19.70
2017-10-07T22:04:43.648Z,19.70
2017-10-07T22:07:12.388Z,19.70
2017-10-07T22:09:41.021Z,19.70
2017-10-07T22:12:09.737Z,19.70
2017-10-07T22:14:38.966Z,19.70
2017-10-07T22:17:07.999Z,19.70
2017-10-07T22:19:38.595Z,19.60
2017-10-07T22:22:09.225Z,19.60
2017-10-07T22:24:38.145Z,19.60
2017-10-07T22:27:09.056Z,19.70
2017-10-07T22:29:37.709Z,19.60
2017-10-07T22:32:07.098Z,19.60
2017-10-07T22:34:36.034Z,19.60
2017-10-07T22:37:05.456Z,19.50
2017-10-07T22:39:34.147Z,19.50
2017-10-07T22:42:03.940Z,19.50
2017-10-07T22:44:33.449Z,19.40
2017-10-07T22:47:03.018Z,19.40
2017-10-07T22:49:32.631Z,19.40
2017-10-07T22:52:01.421Z,19.40
2017-10-07T22:54:31.236Z,19.30
2017-10-07T22:57:00.285Z,19.30
2017-10-07T22:59:29.048Z,19.40
2017-10-07T23:01:58.319Z,19.40
2017-10-07T23:04:27.275Z,19.30
2017-10-07T23:06:56.966Z,19.30
2017-10-07T23:09:26.784Z,19.40
2017-10-07T23:11:55.928Z,19.30
2017-10-07T23:14:24.876Z,19.30
2017-10-07T23:16:53.956Z,19.40
2017-10-07T23:19:22.878Z,19.40
2017-10-07T23:21:52.723Z,19.30
2017-10-07T23:24:21.543Z,19.30
2017-10-07T23:26:50.433Z,19.30
2017-10-07T23:29:20.145Z,19.30
2017-10-07T23:31:49.303Z,19.30
2017-10-07T23:34:19.086Z,19.30
2017-10-07T23:36:47.901Z,19.30
2017-10-07T23:39:16.922Z,19.30
2017-10-07T23:41:45.705Z,19.30
2017-10-07T23:44:14.422Z,19.30
2017-10-07T23:46:43.255Z,19.30
2017-10-07T23:49:12.766Z,19.30
2017-10-07T23:51:41.410Z,19.20
2017-10-07T23:54:09.995Z,19.30
2017-10-07T23:56:39.540Z,19.20
2017-10-07T23:59:09.779Z,19.20
